createdAt,value
2022-11-25T00:01:03.221Z,7.3
2022-11-25T00:03:17.731Z,7.2
2022-11-25T00:04:24.562Z,7.2
2022-11-25T00:05:31.683Z,7.2
2022-11-25T00:06:38.238Z,7.2
2022-11-25T00:07:45.588Z,7.2
2022-11-25T00:08:52.775Z,7.1
2022-11-25T00:09:59.588Z,7.1
2022-11-25T00:11:06.697Z,7.1
2022-11-25T00:13:20.363Z,7.1
2022-11-25T00:14:27.570Z,7
2022-11-25T00:15:34.627Z,6.9
2022-11-25T00:16:46.695Z,6.9
2022-11-25T00:17:48.309Z,6.9
2022-11-25T00:18:55.413Z,6.8
2022-11-25T00:20:02.564Z,6.8
2022-11-25T00:21:09.594Z,6.8
2022-11-25T00:22:16.702Z,6.8
2022-11-25T00:23:23.317Z,6.8
2022-11-25T00:24:30.431Z,6.8
2022-11-25T00:25:37.573Z,6.8
2022-11-25T00:26:44.576Z,6.7
2022-11-25T00:27:51.700Z,6.8
2022-11-25T00:28:58.269Z,6.8
2022-11-25T00:30:05.423Z,6.8
2022-11-25T00:31:12.624Z,6.7
2022-11-25T00:32:19.593Z,6.7
2022-11-25T00:33:26.681Z,6.8
2022-11-25T00:35:40.402Z,6.7
2022-11-25T00:37:54.663Z,6.7
2022-11-25T00:39:01.152Z,6.7
2022-11-25T00:41:15.452Z,6.7
2022-11-25T00:42:22.493Z,6.7
2022-11-25T00:43:29.669Z,6.7
2022-11-25T00:44:37.167Z,6.7
2022-11-25T00:45:43.338Z,6.7
2022-11-25T00:46:50.446Z,6.8
2022-11-25T00:47:57.550Z,6.8
2022-11-25T00:49:04.620Z,6.9
2022-11-25T00:50:11.169Z,7
2022-11-25T00:51:18.419Z,7.1
2022-11-25T00:52:25.463Z,7.2
2022-11-25T00:53:32.513Z,7.2
2022-11-25T00:54:39.682Z,7.2
2022-11-25T00:55:46.402Z,7.3
2022-11-25T00:56:53.336Z,7.4
2022-11-25T00:58:00.403Z,7.4
2022-11-25T00:59:07.526Z,7.4
2022-11-25T01:00:14.626Z,7.5
2022-11-25T01:01:21.297Z,7.6
2022-11-25T01:02:28.430Z,7.6
2022-11-25T01:03:35.490Z,7.7
2022-11-25T01:04:42.553Z,7.7
2022-11-25T01:05:49.639Z,7.7
2022-11-25T01:06:56.219Z,7.7
2022-11-25T01:08:03.377Z,7.6
2022-11-25T01:09:10.406Z,7.6
2022-11-25T01:10:17.511Z,7.5
2022-11-25T01:11:24.758Z,7.5
2022-11-25T01:12:31.270Z,7.5
2022-11-25T01:13:38.332Z,7.5
2022-11-25T01:14:46.512Z,7.4
2022-11-25T01:15:52.573Z,7.4
2022-11-25T01:16:59.743Z,7.4
2022-11-25T01:19:13.315Z,7.4
2022-11-25T01:20:20.472Z,7.4
2022-11-25T01:21:27.592Z,7.5
2022-11-25T01:22:34.691Z,7.5
2022-11-25T01:23:41.214Z,7.5
2022-11-25T01:24:48.422Z,7.5
2022-11-25T01:25:55.483Z,7.5
2022-11-25T01:27:02.535Z,7.5
2022-11-25T01:28:09.684Z,7.6
2022-11-25T01:29:16.273Z,7.6
2022-11-25T01:31:30.565Z,7.6
2022-11-25T01:32:37.555Z,7.6
2022-11-25T01:33:44.761Z,7.6
2022-11-25T01:34:51.261Z,7.6
2022-11-25T01:35:58.391Z,7.6
2022-11-25T01:37:05.482Z,7.6
2022-11-25T01:39:19.712Z,7.5
2022-11-25T01:40:26.293Z,7.5
2022-11-25T01:41:33.444Z,7.5
2022-11-25T01:42:40.467Z,7.5
2022-11-25T01:43:47.592Z,7.5
2022-11-25T01:44:54.732Z,7.6
2022-11-25T01:46:01.403Z,7.6
2022-11-25T01:47:08.416Z,7.6
2022-11-25T01:48:15.532Z,7.6
2022-11-25T01:49:22.571Z,7.6
2022-11-25T01:50:29.764Z,7.6
2022-11-25T01:51:36.358Z,7.6
2022-11-25T01:52:43.382Z,7.6
2022-11-25T01:53:50.468Z,7.5
2022-11-25T01:54:57.719Z,7.5
2022-11-25T01:56:04.811Z,7.4
2022-11-25T01:57:11.321Z,7.4
2022-11-25T01:58:18.365Z,7.4
2022-11-25T02:00:32.819Z,7.4
2022-11-25T02:01:39.786Z,7.4
2022-11-25T02:02:46.448Z,7.4
2022-11-25T02:03:53.371Z,7.4
2022-11-25T02:05:00.489Z,7.5
2022-11-25T02:06:07.654Z,7.5
2022-11-25T02:07:15.389Z,7.5
2022-11-25T02:08:21.269Z,7.5
2022-11-25T02:09:28.379Z,7.5
2022-11-25T02:10:36.071Z,7.5
2022-11-25T02:11:42.614Z,7.5
2022-11-25T02:12:49.795Z,7.5
2022-11-25T02:13:56.375Z,7.5
2022-11-25T02:15:03.422Z,7.5
2022-11-25T02:16:10.640Z,7.5
2022-11-25T02:17:17.662Z,7.5
2022-11-25T02:18:24.271Z,7.6
2022-11-25T02:19:31.285Z,7.6
2022-11-25T02:20:38.454Z,7.6
2022-11-25T02:21:45.524Z,7.7
2022-11-25T02:22:54.022Z,7.6
2022-11-25T02:23:59.229Z,7.6
2022-11-25T02:25:06.327Z,7.6
2022-11-25T02:26:13.512Z,7.5
2022-11-25T02:27:20.571Z,7.5
2022-11-25T02:28:27.677Z,7.5
2022-11-25T02:29:34.274Z,7.5
2022-11-25T02:30:41.365Z,7.5
2022-11-25T02:31:48.549Z,7.5
2022-11-25T02:32:55.547Z,7.5
2022-11-25T02:34:02.642Z,7.4
2022-11-25T02:35:09.239Z,7.3
2022-11-25T02:36:16.428Z,7.2
2022-11-25T02:37:23.482Z,7.2
2022-11-25T02:38:31.081Z,7.2
2022-11-25T02:39:37.682Z,7.2
2022-11-25T02:42:58.514Z,7.1
2022-11-25T02:44:05.624Z,7
2022-11-25T02:45:12.680Z,7
2022-11-25T02:46:22.095Z,7.1
2022-11-25T02:47:26.372Z,7.1
2022-11-25T02:49:06.809Z,7.2
2022-11-25T02:49:40.577Z,7.2
2022-11-25T02:50:47.718Z,7.2
2022-11-25T02:51:54.283Z,7.2
2022-11-25T02:53:01.337Z,7.2
2022-11-25T02:54:08.548Z,7.2
2022-11-25T02:55:15.568Z,7.2
2022-11-25T02:56:22.761Z,7.2
2022-11-25T02:57:29.242Z,7.2
2022-11-25T02:59:43.451Z,7.2
2022-11-25T03:00:50.676Z,7.2
2022-11-25T03:01:57.837Z,7.3
2022-11-25T03:03:04.275Z,7.4
2022-11-25T03:04:11.411Z,7.4
2022-11-25T03:05:18.499Z,7.4
2022-11-25T03:07:32.828Z,7.4
2022-11-25T03:08:39.411Z,7.5
2022-11-25T03:09:46.411Z,7.5
2022-11-25T03:10:53.471Z,7.5
2022-11-25T03:12:00.611Z,7.5
2022-11-25T03:13:07.706Z,7.5
2022-11-25T03:14:14.296Z,7.4
2022-11-25T03:15:21.393Z,7.4
2022-11-25T03:16:28.627Z,7.4
2022-11-25T03:17:35.650Z,7.3
2022-11-25T03:18:42.204Z,7.3
2022-11-25T03:19:49.341Z,7.2
2022-11-25T03:20:56.443Z,7.2
2022-11-25T03:23:10.652Z,7.2
2022-11-25T03:24:17.251Z,7.2
2022-11-25T03:25:24.313Z,7.2
2022-11-25T03:26:31.458Z,7.2
2022-11-25T03:27:38.508Z,7.2
2022-11-25T03:28:45.644Z,7.2
2022-11-25T03:29:52.175Z,7.2
2022-11-25T03:30:59.331Z,7.2
2022-11-25T03:32:09.441Z,7.2
2022-11-25T03:33:13.493Z,7.2
2022-11-25T03:35:28.257Z,7.2
2022-11-25T03:36:34.502Z,7.2
2022-11-25T03:37:41.465Z,7.2
2022-11-25T03:38:48.561Z,7.2
2022-11-25T03:39:55.702Z,7.2
2022-11-25T03:41:02.192Z,7.2
2022-11-25T03:42:09.420Z,7.2
2022-11-25T03:43:16.501Z,7.3
2022-11-25T03:44:23.510Z,7.3
2022-11-25T03:46:37.325Z,7.3
2022-11-25T03:47:44.338Z,7.3
2022-11-25T03:48:51.411Z,7.4
2022-11-25T03:49:58.591Z,7.4
2022-11-25T03:51:05.674Z,7.4
2022-11-25T03:52:12.312Z,7.4
2022-11-25T03:54:26.463Z,7.4
2022-11-25T03:55:33.521Z,7.4
2022-11-25T03:56:40.693Z,7.4
2022-11-25T03:57:47.255Z,7.4
2022-11-25T03:58:54.391Z,7.4
2022-11-25T04:00:01.432Z,7.4
2022-11-25T04:01:08.579Z,7.4
2022-11-25T04:02:15.784Z,7.4
2022-11-25T04:04:29.428Z,7.4
2022-11-25T04:05:36.481Z,7.4
2022-11-25T04:06:43.582Z,7.4
2022-11-25T04:07:56.295Z,7.3
2022-11-25T04:08:57.302Z,7.3
2022-11-25T04:10:04.412Z,7.3
2022-11-25T04:11:11.481Z,7.3
2022-11-25T04:12:18.572Z,7.2
2022-11-25T04:13:25.685Z,7.3
2022-11-25T04:14:32.273Z,7.2
2022-11-25T04:15:39.385Z,7.3
2022-11-25T04:16:46.581Z,7.2
2022-11-25T04:17:53.572Z,7.2
2022-11-25T04:19:00.665Z,7.2
2022-11-25T04:20:07.299Z,7.2
2022-11-25T04:21:14.449Z,7.2
2022-11-25T04:22:21.515Z,7.2
2022-11-25T04:23:28.603Z,7.2
2022-11-25T04:24:36.053Z,7.2
2022-11-25T04:25:42.302Z,7.2
2022-11-25T04:26:49.491Z,7.2
2022-11-25T04:27:56.537Z,7.2
2022-11-25T04:29:03.567Z,7.2
2022-11-25T04:30:10.198Z,7.2
2022-11-25T04:31:17.529Z,7.2
2022-11-25T04:32:24.485Z,7.3
2022-11-25T04:33:31.469Z,7.3
2022-11-25T04:34:38.699Z,7.3
2022-11-25T04:35:45.222Z,7.4
2022-11-25T04:36:52.340Z,7.4
2022-11-25T04:37:59.415Z,7.4
2022-11-25T04:39:06.519Z,7.4
2022-11-25T04:40:13.648Z,7.4
2022-11-25T04:41:20.261Z,7.4
2022-11-25T04:42:27.306Z,7.4
2022-11-25T04:43:34.558Z,7.4
2022-11-25T04:46:13.015Z,7.4
2022-11-25T04:46:55.267Z,7.4
2022-11-25T04:48:02.353Z,7.4
2022-11-25T04:50:16.526Z,7.3
2022-11-25T04:51:23.615Z,7.3
2022-11-25T04:52:30.260Z,7.4
2022-11-25T04:53:37.369Z,7.4
2022-11-25T04:54:44.479Z,7.4
2022-11-25T04:55:51.562Z,7.4
2022-11-25T04:56:58.699Z,7.4
2022-11-25T04:58:05.198Z,7.3
2022-11-25T04:59:12.344Z,7.3
2022-11-25T05:00:19.429Z,7.3
2022-11-25T05:01:26.648Z,7.2
2022-11-25T05:02:33.707Z,7.2
2022-11-25T05:03:46.251Z,7.2
2022-11-25T05:04:47.330Z,7.2
2022-11-25T05:09:15.309Z,7.3
2022-11-25T05:10:22.311Z,7.3
2022-11-25T05:11:29.476Z,7.3
2022-11-25T05:12:36.616Z,7.3
2022-11-25T05:13:43.709Z,7.3
2022-11-25T05:14:50.271Z,7.3
2022-11-25T05:15:57.349Z,7.3
2022-11-25T05:17:04.624Z,7.3
2022-11-25T05:18:11.533Z,7.3
2022-11-25T05:19:18.686Z,7.3
2022-11-25T05:20:25.391Z,7.3
2022-11-25T05:21:32.346Z,7.3
2022-11-25T05:22:39.500Z,7.3
2022-11-25T05:23:48.054Z,7.3
2022-11-25T05:24:53.649Z,7.4
2022-11-25T05:27:07.464Z,7.4
2022-11-25T05:28:14.491Z,7.4
2022-11-25T05:29:21.601Z,7.5
2022-11-25T05:30:28.759Z,7.5
2022-11-25T05:31:35.262Z,7.6
2022-11-25T05:32:42.346Z,7.6
2022-11-25T05:33:49.537Z,7.5
2022-11-25T05:34:56.590Z,7.6
2022-11-25T05:36:03.684Z,7.6
2022-11-25T05:37:10.322Z,7.6
2022-11-25T05:38:17.424Z,7.6
2022-11-25T05:39:24.514Z,7.6
2022-11-25T05:40:31.633Z,7.6
2022-11-25T05:41:38.706Z,7.6
2022-11-25T05:42:45.346Z,7.7
2022-11-25T05:43:52.456Z,7.7
2022-11-25T05:44:59.490Z,7.7
2022-11-25T05:46:06.711Z,7.7
2022-11-25T05:47:13.773Z,7.7
2022-11-25T05:48:20.327Z,7.7
2022-11-25T05:49:27.413Z,7.7
2022-11-25T05:50:34.521Z,7.8
2022-11-25T05:51:41.610Z,7.8
2022-11-25T05:53:55.325Z,7.8
2022-11-25T05:56:09.572Z,7.8
2022-11-25T05:57:16.639Z,7.8
2022-11-25T05:58:23.187Z,7.8
2022-11-25T05:59:30.327Z,7.7
2022-11-25T06:00:37.490Z,7.7
2022-11-25T06:01:44.571Z,7.6
2022-11-25T06:02:54.269Z,7.6
2022-11-25T06:03:58.212Z,7.6
2022-11-25T06:05:05.392Z,7.6
2022-11-25T06:06:12.458Z,7.5
2022-11-25T06:08:26.666Z,7.4
2022-11-25T06:09:33.207Z,7.4
2022-11-25T06:10:40.305Z,7.4
2022-11-25T06:11:47.471Z,7.4
2022-11-25T06:12:54.150Z,7.4
2022-11-25T06:14:01.644Z,7.3
2022-11-25T06:15:08.279Z,7.3
2022-11-25T06:16:15.398Z,7.2
2022-11-25T06:17:22.511Z,7.2
2022-11-25T06:18:29.539Z,7.2
2022-11-25T06:19:36.689Z,7.2
2022-11-25T06:20:43.232Z,7.2
2022-11-25T06:21:50.330Z,7.2
2022-11-25T06:22:57.481Z,7.2
2022-11-25T06:24:04.566Z,7.2
2022-11-25T06:25:11.652Z,7.2
2022-11-25T06:26:18.235Z,7.2
2022-11-25T06:27:25.394Z,7.2
2022-11-25T06:28:32.423Z,7.2
2022-11-25T06:29:39.590Z,7.2
2022-11-25T06:30:46.848Z,7.2
2022-11-25T06:31:54.298Z,7.2
2022-11-25T06:33:00.331Z,7.2
2022-11-25T06:34:07.500Z,7.2
2022-11-25T06:35:14.618Z,7.2
2022-11-25T06:36:21.664Z,7.2
2022-11-25T06:37:28.304Z,7.1
2022-11-25T06:38:35.355Z,7.1
2022-11-25T06:39:42.461Z,7.1
2022-11-25T06:41:56.683Z,7
2022-11-25T06:43:03.261Z,7
2022-11-25T06:44:10.347Z,7
2022-11-25T06:45:17.443Z,7
2022-11-25T06:46:25.338Z,7
2022-11-25T06:47:31.729Z,7
2022-11-25T06:49:45.399Z,7
2022-11-25T06:50:52.473Z,6.9
2022-11-25T06:51:59.622Z,6.9
2022-11-25T06:53:06.721Z,6.9
2022-11-25T06:54:13.261Z,7
2022-11-25T06:55:20.347Z,7
2022-11-25T06:57:34.639Z,7
2022-11-25T06:58:41.714Z,7
2022-11-25T06:59:48.311Z,7
2022-11-25T07:00:55.386Z,7
2022-11-25T07:02:02.610Z,7.1
2022-11-25T07:03:09.808Z,7.1
2022-11-25T07:04:16.763Z,7
2022-11-25T07:05:23.262Z,7.1
2022-11-25T07:06:31.407Z,7
2022-11-25T07:07:37.750Z,7
2022-11-25T07:08:44.124Z,7
2022-11-25T07:09:51.168Z,6.9
2022-11-25T07:10:58.301Z,6.9
2022-11-25T07:12:05.414Z,6.9
2022-11-25T07:13:12.488Z,6.9
2022-11-25T07:14:19.651Z,6.9
2022-11-25T07:15:26.243Z,6.9
2022-11-25T07:16:33.325Z,6.8
2022-11-25T07:17:40.475Z,6.9
2022-11-25T07:18:47.519Z,6.8
2022-11-25T07:19:54.652Z,6.8
2022-11-25T07:21:01.202Z,6.8
2022-11-25T07:22:08.307Z,6.8
2022-11-25T07:24:22.554Z,6.8
2022-11-25T07:25:30.879Z,6.8
2022-11-25T07:26:36.281Z,6.9
2022-11-25T07:27:43.342Z,6.9
2022-11-25T07:28:50.434Z,6.9
2022-11-25T07:31:27.219Z,7
2022-11-25T07:32:11.201Z,7
2022-11-25T07:33:18.353Z,7.1
2022-11-25T07:34:25.481Z,7.1
2022-11-25T07:35:32.521Z,7
2022-11-25T07:36:39.685Z,7
2022-11-25T07:37:46.359Z,7.1
2022-11-25T07:38:53.341Z,7.1
2022-11-25T07:40:00.451Z,7
2022-11-25T07:41:07.582Z,7.1
2022-11-25T07:42:14.692Z,7.1
2022-11-25T07:43:21.292Z,7.2
2022-11-25T07:44:28.463Z,7.2
2022-11-25T07:45:35.469Z,7.2
2022-11-25T07:46:42.668Z,7.2
2022-11-25T07:47:50.211Z,7.2
2022-11-25T07:48:56.302Z,7.3
2022-11-25T07:50:03.341Z,7.4
2022-11-25T07:51:10.512Z,7.4
2022-11-25T07:52:17.647Z,7.4
2022-11-25T07:53:24.722Z,7.5
2022-11-25T07:54:31.283Z,7.5
2022-11-25T07:55:38.391Z,7.6
2022-11-25T07:56:45.469Z,7.7
2022-11-25T07:57:52.629Z,7.7
2022-11-25T07:58:59.681Z,7.8
2022-11-25T08:01:13.375Z,7.9
2022-11-25T08:02:20.612Z,7.9
2022-11-25T08:03:27.582Z,7.9
2022-11-25T08:04:34.701Z,8
2022-11-25T08:05:41.290Z,8
2022-11-25T08:06:48.394Z,8
2022-11-25T08:07:55.542Z,8
2022-11-25T08:09:02.573Z,8
2022-11-25T08:10:09.281Z,8
2022-11-25T08:12:23.488Z,7.9
2022-11-25T08:13:30.472Z,7.9
2022-11-25T08:14:37.622Z,7.9
2022-11-25T08:15:44.866Z,7.8
2022-11-25T08:16:51.258Z,7.7
2022-11-25T08:17:58.429Z,7.8
2022-11-25T08:19:05.519Z,7.8
2022-11-25T08:20:12.601Z,7.7
2022-11-25T08:21:19.332Z,7.6
2022-11-25T08:22:26.362Z,7.6
2022-11-25T08:23:33.391Z,7.6
2022-11-25T08:24:40.532Z,7.6
2022-11-25T08:25:50.457Z,7.5
2022-11-25T08:26:54.275Z,7.5
2022-11-25T08:28:01.822Z,7.5
2022-11-25T08:29:09.589Z,7.4
2022-11-25T08:30:15.518Z,7.4
2022-11-25T08:31:22.693Z,7.4
2022-11-25T08:32:29.288Z,7.4
2022-11-25T08:33:36.372Z,7.4
2022-11-25T08:34:43.395Z,7.4
2022-11-25T08:35:50.540Z,7.4
2022-11-25T08:36:57.671Z,7.4
2022-11-25T08:38:04.279Z,7.4
2022-11-25T08:39:36.078Z,7.4
2022-11-25T08:40:18.469Z,7.4
2022-11-25T08:41:25.575Z,7.4
2022-11-25T08:42:32.667Z,7.4
2022-11-25T08:43:39.228Z,7.4
2022-11-25T08:44:46.326Z,7.4
2022-11-25T08:45:53.403Z,7.4
2022-11-25T08:47:00.609Z,7.4
2022-11-25T08:48:07.683Z,7.4
2022-11-25T08:49:14.268Z,7.4
2022-11-25T08:50:21.343Z,7.4
2022-11-25T08:53:42.750Z,7.3
2022-11-25T08:54:49.305Z,7.2
2022-11-25T08:55:56.913Z,7.2
2022-11-25T08:57:03.447Z,7.2
2022-11-25T08:58:10.564Z,7.2
2022-11-25T08:59:17.690Z,7.1
2022-11-25T09:00:24.264Z,7.1
2022-11-25T09:01:31.464Z,7
2022-11-25T09:02:38.564Z,7.1
2022-11-25T09:04:52.641Z,7
2022-11-25T09:05:59.275Z,7
2022-11-25T09:07:06.355Z,6.9
2022-11-25T09:08:13.505Z,6.9
2022-11-25T09:09:20.652Z,6.9
2022-11-25T09:10:28.203Z,6.9
2022-11-25T09:11:34.326Z,6.9
2022-11-25T09:12:41.412Z,6.9
2022-11-25T09:13:48.617Z,6.9
2022-11-25T09:14:55.614Z,6.8
2022-11-25T09:16:02.197Z,6.8
2022-11-25T09:17:09.307Z,6.8
2022-11-25T09:18:16.393Z,6.8
2022-11-25T09:19:23.512Z,6.8
2022-11-25T09:20:30.583Z,6.8
2022-11-25T09:21:37.236Z,6.8
2022-11-25T09:22:44.358Z,6.8
2022-11-25T09:24:58.478Z,6.7
2022-11-25T09:26:05.617Z,6.7
2022-11-25T09:27:12.203Z,6.8
2022-11-25T09:28:19.803Z,6.8
2022-11-25T09:29:26.391Z,6.8
2022-11-25T09:30:33.508Z,6.8
2022-11-25T09:31:40.649Z,6.8
2022-11-25T09:32:47.232Z,6.8
2022-11-25T09:35:01.395Z,6.8
2022-11-25T09:36:08.533Z,6.8
2022-11-25T09:37:15.641Z,6.8
2022-11-25T09:38:22.220Z,6.8
2022-11-25T09:39:29.359Z,6.8
2022-11-25T09:40:36.440Z,6.8
2022-11-25T09:41:43.476Z,6.8
2022-11-25T09:42:50.634Z,6.8
2022-11-25T09:43:57.239Z,6.8
2022-11-25T09:45:04.514Z,6.8
2022-11-25T09:46:11.491Z,6.8
2022-11-25T09:47:18.615Z,6.8
2022-11-25T09:48:25.622Z,6.8
2022-11-25T09:49:32.183Z,6.9
2022-11-25T09:50:39.317Z,6.8
2022-11-25T09:52:54.444Z,6.8
2022-11-25T09:54:00.600Z,6.8
2022-11-25T09:55:07.255Z,6.8
2022-11-25T09:56:14.444Z,6.8
2022-11-25T09:57:21.485Z,6.7
2022-11-25T09:58:28.568Z,6.7
2022-11-25T09:59:35.873Z,6.7
2022-11-25T10:00:42.226Z,6.7
2022-11-25T10:01:49.477Z,6.7
2022-11-25T10:02:56.554Z,6.7
2022-11-25T10:04:03.501Z,6.7
2022-11-25T10:05:10.634Z,6.7
2022-11-25T10:06:17.353Z,6.7
2022-11-25T10:08:31.492Z,6.7
2022-11-25T10:09:38.900Z,6.7
2022-11-25T10:10:45.685Z,6.7
2022-11-25T10:11:52.490Z,6.7
2022-11-25T10:12:59.399Z,6.7
2022-11-25T10:14:06.511Z,6.7
2022-11-25T10:16:20.715Z,6.7
2022-11-25T10:17:27.332Z,6.7
2022-11-25T10:18:34.345Z,6.7
2022-11-25T10:19:41.452Z,6.7
2022-11-25T10:20:48.556Z,6.7
2022-11-25T10:22:05.039Z,6.7
2022-11-25T10:23:02.283Z,6.7
2022-11-25T10:24:09.385Z,6.6
2022-11-25T10:25:16.484Z,6.6
2022-11-25T10:26:23.575Z,6.5
2022-11-25T10:27:30.743Z,6.5
2022-11-25T10:28:37.264Z,6.5
2022-11-25T10:29:44.365Z,6.4
2022-11-25T10:30:51.534Z,6.4
2022-11-25T10:31:58.593Z,6.4
2022-11-25T10:33:06.302Z,6.3
2022-11-25T10:34:12.279Z,6.3
2022-11-25T10:35:19.432Z,6.3
2022-11-25T10:36:26.487Z,6.3
2022-11-25T10:37:33.553Z,6.2
2022-11-25T10:38:40.770Z,6.2
2022-11-25T10:39:47.289Z,6.2
2022-11-25T10:40:54.381Z,6.2
2022-11-25T10:42:01.497Z,6.2
2022-11-25T10:43:08.594Z,6.2
2022-11-25T10:44:15.762Z,6.2
2022-11-25T10:45:22.296Z,6.3
2022-11-25T10:46:49.600Z,6.3
2022-11-25T10:47:36.776Z,6.3
2022-11-25T10:48:44.581Z,6.4
2022-11-25T10:49:50.313Z,6.5
2022-11-25T10:50:57.343Z,6.6
2022-11-25T10:52:04.425Z,6.7
2022-11-25T10:53:11.494Z,6.8
2022-11-25T10:54:25.515Z,6.8
2022-11-25T10:55:25.788Z,7
2022-11-25T10:57:39.488Z,7.2
2022-11-25T10:58:46.562Z,7.4
2022-11-25T10:59:53.711Z,7.5
2022-11-25T11:01:00.791Z,7.7
2022-11-25T11:02:07.409Z,7.8
2022-11-25T11:03:14.616Z,7.8
2022-11-25T11:04:21.539Z,7.9
2022-11-25T11:05:28.680Z,7.9
2022-11-25T11:06:35.264Z,8.1
2022-11-25T11:07:42.361Z,8.1
2022-11-25T11:08:49.453Z,8.2
2022-11-25T11:09:56.529Z,8.2
2022-11-25T11:12:10.207Z,8.3
2022-11-25T11:13:17.350Z,8.3
2022-11-25T11:14:24.464Z,8.4
2022-11-25T11:15:31.562Z,8.4
2022-11-25T11:16:38.748Z,8.4
2022-11-25T11:17:45.303Z,8.4
2022-11-25T11:18:52.287Z,8.4
2022-11-25T11:19:59.494Z,8.3
2022-11-25T11:21:06.551Z,8.3
2022-11-25T11:23:20.280Z,8.3
2022-11-25T11:24:27.339Z,8.3
2022-11-25T11:25:34.469Z,8.3
2022-11-25T11:26:41.574Z,8.3
2022-11-25T11:27:48.772Z,8.4
2022-11-25T11:28:55.245Z,8.4
2022-11-25T11:30:02.318Z,8.4
2022-11-25T11:31:09.620Z,8.4
2022-11-25T11:32:16.522Z,8.5
2022-11-25T11:33:23.624Z,8.5
2022-11-25T11:34:30.283Z,8.5
2022-11-25T11:35:41.685Z,8.6
2022-11-25T11:36:44.479Z,8.6
2022-11-25T11:38:58.768Z,8.6
2022-11-25T11:40:05.282Z,8.5
2022-11-25T11:41:12.330Z,8.4
2022-11-25T11:42:19.475Z,8.4
2022-11-25T11:43:26.620Z,8.4
2022-11-25T11:44:33.936Z,8.4
2022-11-25T11:45:40.267Z,8.4
2022-11-25T11:46:47.463Z,8.4
2022-11-25T11:49:01.602Z,8.4
2022-11-25T11:51:15.314Z,8.3
2022-11-25T11:52:22.382Z,8.2
2022-11-25T11:53:29.530Z,8.2
2022-11-25T11:54:37.166Z,8.2
2022-11-25T11:55:44.265Z,8.2
2022-11-25T11:56:54.983Z,8.1
2022-11-25T11:57:57.485Z,8.1
2022-11-25T11:59:04.494Z,8.1
2022-11-25T12:00:11.616Z,8.1
2022-11-25T12:01:18.742Z,8.1
2022-11-25T12:02:25.796Z,8
2022-11-25T12:03:32.523Z,7.9
2022-11-25T12:04:39.849Z,7.9
2022-11-25T12:05:46.623Z,7.9
2022-11-25T12:06:53.713Z,7.8
2022-11-25T12:08:00.505Z,7.8
2022-11-25T12:09:07.406Z,7.9
2022-11-25T12:10:14.506Z,7.9
2022-11-25T12:11:21.628Z,7.9
2022-11-25T12:12:28.801Z,7.9
2022-11-25T12:13:35.296Z,8
2022-11-25T12:15:49.653Z,8.1
2022-11-25T12:16:56.629Z,8.1
2022-11-25T12:19:10.296Z,8.2
2022-11-25T12:20:17.392Z,8.2
2022-11-25T12:21:24.554Z,8.2
2022-11-25T12:22:31.636Z,8.3
2022-11-25T12:23:38.196Z,8.3
2022-11-25T12:24:45.409Z,8.3
2022-11-25T12:25:52.401Z,8.3
2022-11-25T12:26:59.607Z,8.3
2022-11-25T12:28:06.663Z,8.3
2022-11-25T12:29:13.449Z,8.3
2022-11-25T12:30:20.394Z,8.3
2022-11-25T12:31:27.725Z,8.3
2022-11-25T12:32:35.934Z,8.3
2022-11-25T12:33:41.648Z,8.3
2022-11-25T12:34:48.197Z,8.2
2022-11-25T12:35:55.584Z,8.2
2022-11-25T12:37:02.530Z,8.1
2022-11-25T12:38:09.560Z,8.1
2022-11-25T12:39:16.714Z,7.9
2022-11-25T12:40:23.269Z,7.8
2022-11-25T12:41:30.307Z,7.7
2022-11-25T12:42:37.574Z,7.6
2022-11-25T12:43:44.548Z,7.5
2022-11-25T12:44:51.624Z,7.5
2022-11-25T12:45:58.331Z,7.4
2022-11-25T12:47:05.353Z,7.4
2022-11-25T12:48:13.689Z,7.3
2022-11-25T12:49:19.581Z,7.3
2022-11-25T12:50:26.739Z,7.2
2022-11-25T12:51:33.289Z,7.2
2022-11-25T12:52:40.509Z,7.2
2022-11-25T12:53:47.485Z,7.3
2022-11-25T12:54:54.558Z,7.3
2022-11-25T12:56:01.686Z,7.3
2022-11-25T12:57:08.280Z,7.4
2022-11-25T12:58:15.525Z,7.4
2022-11-25T12:59:22.427Z,7.4
2022-11-25T13:00:42.239Z,7.4
2022-11-25T13:01:36.810Z,7.4
2022-11-25T13:02:43.265Z,7.4
2022-11-25T13:03:50.404Z,7.4
2022-11-25T13:05:07.596Z,7.4
2022-11-25T13:06:04.643Z,7.4
2022-11-25T13:07:11.779Z,7.5
2022-11-25T13:08:18.398Z,7.5
2022-11-25T13:09:25.401Z,7.5
2022-11-25T13:10:32.491Z,7.5
2022-11-25T13:11:39.814Z,7.5
2022-11-25T13:12:47.125Z,7.6
2022-11-25T13:13:53.840Z,7.6
2022-11-25T13:15:01.077Z,7.7
2022-11-25T13:17:15.217Z,7.7
2022-11-25T13:19:28.987Z,7.9
2022-11-25T13:21:48.031Z,8
2022-11-25T13:22:49.697Z,8.1
2022-11-25T13:23:56.181Z,8.1
2022-11-25T13:25:03.641Z,8.2
2022-11-25T13:26:10.737Z,8.2
2022-11-25T13:27:17.670Z,8.3
2022-11-25T13:28:24.647Z,8.4
2022-11-25T13:29:31.178Z,8.4
2022-11-25T13:30:38.488Z,8.5
2022-11-25T13:31:45.427Z,8.6
2022-11-25T13:32:54.424Z,8.6
2022-11-25T13:33:59.634Z,8.6
2022-11-25T13:35:06.202Z,8.6
2022-11-25T13:36:13.639Z,8.6
2022-11-25T13:37:20.476Z,8.6
2022-11-25T13:38:27.703Z,8.7
2022-11-25T13:39:34.982Z,8.8
2022-11-25T13:40:50.150Z,8.8
2022-11-25T13:41:48.424Z,8.7
2022-11-25T13:42:55.494Z,8.7
2022-11-25T13:44:02.688Z,8.8
2022-11-25T13:45:09.671Z,8.8
2022-11-25T13:46:16.504Z,8.8
2022-11-25T13:47:23.456Z,8.8
2022-11-25T13:49:37.652Z,8.9
2022-11-25T13:51:03.309Z,8.9
2022-11-25T13:51:51.276Z,8.9
2022-11-25T13:52:58.961Z,8.9
2022-11-25T13:54:05.426Z,9
2022-11-25T13:55:12.553Z,9
2022-11-25T13:56:19.651Z,9
2022-11-25T13:57:26.276Z,9
2022-11-25T13:58:33.462Z,9.1
2022-11-25T13:59:40.939Z,9.1
2022-11-25T14:00:47.612Z,9.1
2022-11-25T14:01:54.790Z,9.1
2022-11-25T14:03:01.427Z,9.1
2022-11-25T14:04:08.440Z,9.1
2022-11-25T14:05:15.512Z,9.1
2022-11-25T14:06:22.527Z,9.1
2022-11-25T14:07:29.945Z,9.1
2022-11-25T14:08:36.244Z,9.1
2022-11-25T14:09:43.409Z,9.1
2022-11-25T14:10:50.482Z,9.2
2022-11-25T14:11:57.590Z,9.2
2022-11-25T14:13:04.731Z,9.2
2022-11-25T14:14:11.221Z,9.2
2022-11-25T14:15:18.382Z,9.2
2022-11-25T14:17:32.680Z,9.2
2022-11-25T14:19:11.936Z,9.2
2022-11-25T14:19:52.347Z,9.1
2022-11-25T14:20:53.405Z,9.2
2022-11-25T14:23:07.649Z,9.1
2022-11-25T14:24:14.810Z,9.2
2022-11-25T14:25:21.373Z,9.2
2022-11-25T14:26:48.795Z,9.2
2022-11-25T14:27:35.533Z,9.3
2022-11-25T14:28:42.743Z,9.3
2022-11-25T14:29:49.762Z,9.2
2022-11-25T14:30:56.481Z,9.2
2022-11-25T14:32:03.500Z,9.2
2022-11-25T14:33:10.552Z,9.2
2022-11-25T14:34:17.663Z,9.2
2022-11-25T14:35:24.204Z,9.2
2022-11-25T14:36:31.273Z,9.2
2022-11-25T14:37:38.490Z,9.1
2022-11-25T14:38:45.492Z,9.2
2022-11-25T14:39:52.568Z,9.2
2022-11-25T14:41:00.818Z,9.2
2022-11-25T14:42:06.286Z,9.2
2022-11-25T14:43:13.427Z,9.2
2022-11-25T14:44:20.702Z,9.2
2022-11-25T14:45:27.822Z,9.3
2022-11-25T14:46:34.227Z,9.3
2022-11-25T14:47:41.355Z,9.3
2022-11-25T14:48:48.493Z,9.3
2022-11-25T14:50:18.729Z,9.3
2022-11-25T14:51:02.757Z,9.3
2022-11-25T14:52:09.235Z,9.3
2022-11-25T14:53:16.353Z,9.3
2022-11-25T14:54:23.384Z,9.3
2022-11-25T14:55:30.482Z,9.3
2022-11-25T14:56:37.765Z,9.3
2022-11-25T14:57:44.458Z,9.3
2022-11-25T14:58:51.275Z,9.3
2022-11-25T14:59:58.421Z,9.3
2022-11-25T15:01:05.560Z,9.3
2022-11-25T15:02:12.783Z,9.3
2022-11-25T15:03:19.341Z,9.3
2022-11-25T15:04:26.400Z,9.3
2022-11-25T15:05:33.394Z,9.3
2022-11-25T15:06:40.568Z,9.3
2022-11-25T15:07:47.721Z,9.3
2022-11-25T15:08:54.274Z,9.3
2022-11-25T15:10:01.371Z,9.3
2022-11-25T15:11:08.439Z,9.3
2022-11-25T15:12:15.590Z,9.3
2022-11-25T15:13:22.743Z,9.3
2022-11-25T15:14:29.347Z,9.4
2022-11-25T15:15:36.473Z,9.4
2022-11-25T15:16:43.569Z,9.4
2022-11-25T15:17:50.763Z,9.4
2022-11-25T15:18:57.231Z,9.4
2022-11-25T15:20:04.278Z,9.4
2022-11-25T15:21:11.934Z,9.4
2022-11-25T15:23:25.635Z,9.4
2022-11-25T15:24:32.707Z,9.4
2022-11-25T15:26:46.451Z,9.4
2022-11-25T15:27:53.428Z,9.4
2022-11-25T15:29:00.545Z,9.4
2022-11-25T15:30:11.619Z,9.4
2022-11-25T15:31:14.292Z,9.4
2022-11-25T15:32:21.423Z,9.4
2022-11-25T15:33:28.466Z,9.4
2022-11-25T15:34:35.624Z,9.4
2022-11-25T15:35:42.637Z,9.4
2022-11-25T15:36:54.018Z,9.4
2022-11-25T15:37:56.502Z,9.3
2022-11-25T15:39:03.434Z,9.3
2022-11-25T15:40:10.658Z,9.3
2022-11-25T15:41:17.814Z,9.3
2022-11-25T15:42:24.333Z,9.3
2022-11-25T15:43:31.387Z,9.4
2022-11-25T15:44:38.490Z,9.4
2022-11-25T15:45:45.749Z,9.4
2022-11-25T15:46:52.137Z,9.4
2022-11-25T15:47:59.443Z,9.3
2022-11-25T15:49:06.561Z,9.4
2022-11-25T15:50:13.456Z,9.4
2022-11-25T15:51:20.800Z,9.4
2022-11-25T15:52:27.781Z,9.4
2022-11-25T15:53:34.394Z,9.4
2022-11-25T15:54:41.500Z,9.4
2022-11-25T15:55:48.494Z,9.4
2022-11-25T15:56:55.607Z,9.4
2022-11-25T15:58:02.349Z,9.4
2022-11-25T15:59:09.553Z,9.4
2022-11-25T16:00:16.529Z,9.4
2022-11-25T16:01:23.858Z,9.4
2022-11-25T16:02:30.999Z,9.4
2022-11-25T16:04:44.578Z,9.4
2022-11-25T16:05:51.562Z,9.4
2022-11-25T16:06:58.519Z,9.3
2022-11-25T16:08:05.784Z,9.3
2022-11-25T16:09:12.300Z,9.3
2022-11-25T16:10:19.467Z,9.3
2022-11-25T16:11:26.605Z,9.3
2022-11-25T16:13:40.694Z,9.3
2022-11-25T16:14:47.389Z,9.3
2022-11-25T16:15:54.637Z,9.3
2022-11-25T16:17:01.522Z,9.3
2022-11-25T16:18:32.528Z,9.3
2022-11-25T16:19:15.620Z,9.3
2022-11-25T16:20:22.182Z,9.3
2022-11-25T16:21:29.324Z,9.3
2022-11-25T16:22:36.523Z,9.3
2022-11-25T16:23:43.497Z,9.3
2022-11-25T16:24:50.831Z,9.3
2022-11-25T16:25:57.227Z,9.3
2022-11-25T16:27:04.604Z,9.3
2022-11-25T16:28:11.729Z,9.3
2022-11-25T16:30:25.617Z,9.3
2022-11-25T16:31:32.396Z,9.3
2022-11-25T16:32:39.512Z,9.3
2022-11-25T16:33:46.602Z,9.3
2022-11-25T16:34:53.639Z,9.2